METAR Data
IDs: Format: Raw Decoded Include TAF

Data at: 0113 UTC 06 Dec 2019

KPSF 060105Z AUTO 30013G25KT 10SM OVC030 M02/M08 A2987 RMK AO2 T10221083
KPSF 060054Z AUTO 30014G28KT 10SM OVC029 M02/M08 A2986 RMK AO2 PK WND 29033/0044 SLP124 T10221083
KPSF 060037Z AUTO 30014G23KT 10SM OVC030 M02/M08 A2986 RMK AO2 PK WND 30030/0020 T10221083
KPSF 052354Z AUTO 31014G22KT 10SM OVC027 M02/M08 A2984 RMK AO2 PK WND 27035/2325 SLP116 60000 T10221078 10011 21022 53030
KPSF 052302Z AUTO 29013G26KT 10SM BKN029 OVC036 M02/M08 A2981 RMK AO2 T10171078
KPSF 052254Z AUTO 30016G26KT 10SM SCT029 OVC036 M02/M08 A2981 RMK AO2 PK WND 27029/2233 SLP103 T10171078
KPSF 052154Z AUTO 29011G22KT 10SM SCT040 BKN050 OVC060 M01/M09 A2977 RMK AO2 PK WND 28028/2107 SLP088 T10111089
KPSF 052054Z AUTO 29019G26KT 9SM FEW036 OVC070 M01/M08 A2975 RMK AO2 PK WND 30026/2054 SNE23 SLP083 P0000 60000 T10111078 53030
KPSF 052021Z AUTO 30011G20KT 6SM -SN BKN034 BKN047 OVC065 M01/M06 A2973 RMK AO2 P0000 T10111061
KPSF 052014Z AUTO 29014G18KT 2 1/2SM -SN BKN030 BKN041 OVC048 M01/M06 A2973 RMK AO2 P0000 T10111056
KPSF 052002Z AUTO 30016G24KT 1 3/4SM -SN BKN028 BKN035 OVC060 M01/M06 A2972 RMK AO2 PRESRR P0000 T10111061
KPSF 051954Z AUTO 31011G19KT 8SM -SN FEW033 BKN042 OVC060 00/M07 A2971 RMK AO2 SNB54 PRESRR SLP069 P0000 T00001067
KPSF 051854Z AUTO 30014G23KT 10SM BKN044 BKN060 01/M08 A2967 RMK AO2 SLP056 T00061078
KPSF 051754Z AUTO 30010G22KT 10SM OVC041 01/M08 A2966 RMK AO2 PK WND 28031/1729 SLP050 60000 T00111078 10011 21006 51010
KPSF 051654Z AUTO 31010G25KT 10SM FEW042 OVC060 01/M08 A2965 RMK AO2 PK WND 32031/1619 SLP046 T00111083
KPSF 051554Z AUTO 30015G19KT 10SM SCT037 OVC050 01/M07 A2964 RMK AO2 PK WND 27030/1500 RAB08E12 SLP044 P0000 T00111067
KPSF 051454Z AUTO 29014G24KT 9SM SCT033 BKN060 OVC070 01/M06 A2963 RMK AO2 PK WND 29027/1355 SLP041 60000 T00061056 53019
KPSF 051354Z AUTO 28013G24KT 9SM OVC055 00/M04 A2959 RMK AO2 SNE40 SLP028 P0000 T00001044
KPSF 051326Z AUTO 28015G22KT 3SM -SN FEW012 BKN030 OVC047 00/M03 A2958 RMK AO2 P0000 T00001033
KPSF 051254Z AUTO 29015G24KT 1SM -SN SCT013 OVC019 00/M03 A2957 RMK AO2 SLP020 P0000 T00001028
KPSF 051251Z AUTO 28015G24KT 1SM -SN SCT012 OVC021 00/M03 A2957 RMK AO2 P0000
KPSF 051243Z AUTO 27015G22KT 3/4SM -SN SCT012 OVC021 00/M03 A2956 RMK AO2 P0000 T00001028
KPSF 051224Z AUTO 27009KT 1 3/4SM -SN SCT022 OVC028 00/M03 A2955 RMK AO2 P0000 T00001028
KPSF 051222Z AUTO 28010KT 2 1/2SM -SN SCT022 OVC030 00/M03 A2955 RMK AO2 P0000 T00001028
KPSF 051201Z AUTO 27007KT 6SM -SN FEW020 BKN026 OVC043 M01/M03 A2955 RMK AO2 P0000 T10061033
KPSF 051154Z AUTO 26008KT 2 1/2SM -SN BKN023 OVC043 00/M03 A2954 RMK AO2 SNB00 SLP012 P0000 60000 T00001028 10006 21011 51019
KPSF 051150Z AUTO 27008KT 2SM -SN BKN021 BKN026 OVC037 00/M03 A2954 RMK AO2 SNB00 P0000
KPSF 051054Z AUTO 26011KT 10SM OVC019 01/M03 A2952 RMK AO2 SLP002 T00061033
KPSF 050954Z AUTO 23007KT 10SM OVC024 01/M03 A2949 RMK AO2 SLP992 T00061028
KPSF 050854Z AUTO 23006KT 10SM OVC023 00/M03 A2947 RMK AO2 SLP986 60000 T00001028 53013
KPSF 050754Z AUTO 25006KT 10SM OVC028 00/M03 A2946 RMK AO2 SLP981 T00001028
KPSF 050715Z AUTO 23006KT 10SM OVC029 00/M02 A2945 RMK AO2 T00001022
KPSF 050708Z AUTO 23006KT 10SM FEW025 OVC031 00/M02 A2944 RMK AO2 T00001022
KPSF 050654Z AUTO 22005KT 9SM OVC027 00/M03 A2944 RMK AO2 SNE15 SLP976 P0000 T00001028
KPSF 050604Z AUTO 22003KT 5SM -SN BR BKN025 OVC034 M01/M02 A2943 RMK AO2 P0000 T10061022
KPSF 050554Z AUTO 20003KT 5SM -SN BR SCT025 OVC034 M01/M02 A2943 RMK AO2 SLP973 P0000 60000 T10061022 10000 21022 58000
KPSF 050542Z AUTO 24005KT 3SM -SN BR BKN031 OVC040 M01/M02 A2943 RMK AO2 P0000 T10061022
KPSF 050454Z AUTO 25005KT 5SM -SN BR BKN025 OVC031 M01/M03 A2943 RMK AO2 SNB17 SLP974 P0000 T10061028 400111050
KPSF 050431Z AUTO 24004KT 5SM -SN BR BKN027 OVC035 M01/M03 A2943 RMK AO2 SNB17 P0000 T10061028
KPSF 050354Z AUTO 00000KT 10SM BKN031 BKN043 OVC060 M01/M03 A2943 RMK AO2 SLP975 T10111028
KPSF 050254Z AUTO 00000KT 8SM BKN039 OVC049 M02/M04 A2943 RMK AO2 SLP977 60000 T10221039 58001
KPSF 050154Z AUTO 00000KT 10SM BKN038 BKN110 M01/M03 A2943 RMK AO2 SLP977 T10061028
KPSF 050135Z AUTO 24003KT 9SM SCT023 OVC038 00/M03 A2944 RMK AO2 T00001028
KPSF 050115Z AUTO 23004KT 9SM BKN023 BKN032 OVC050 00/M03 A2944 RMK AO2 T00001028
KPSF 050054Z AUTO 22005KT 8SM FEW026 BKN041 OVC055 00/M03 A2944 RMK AO2 SNE51 SLP978 P0000 T00001028
KPSF 042354Z AUTO 24005KT 6SM -SN BKN039 OVC049 00/M03 A2943 RMK AO2 SNB53 SLP977 P0000 60000 T00001033 10011 21011 53010
KPSF 042320Z AUTO 24004KT 10SM FEW027 OVC047 00/M03 A2943 RMK AO2 T00001033
KPSF 042254Z AUTO 23003KT 10SM BKN027 OVC047 00/M04 A2943 RMK AO2 SLP975 T00001039
KPSF 042224Z AUTO 25003KT 10SM BKN027 BKN050 M01/M04 A2942 RMK AO2 T10061044
KPSF 042154Z AUTO 15003KT 10SM BKN041 OVC050 01/M04 A2941 RMK AO2 SLP966 T00061039
KPSF 042119Z AUTO 20003KT 10SM SCT028 OVC041 01/M04 A2941 RMK AO2 T00061039
KPSF 042103Z AUTO 21004KT 10SM BKN029 OVC044 01/M04 A2940 RMK AO2 T00061039
KPSF 042054Z AUTO 21003KT 10SM BKN030 OVC044 01/M04 A2940 RMK AO2 SLP965 T00061039 55002
KPSF 041954Z AUTO VRB03KT 10SM OVC039 01/M04 A2940 RMK AO2 SLP964 T00061039
KPSF 041905Z AUTO 23006KT 10SM SCT026 OVC039 01/M04 A2940 RMK AO2 T00061039
KPSF 041854Z AUTO 22005KT 10SM BKN026 OVC037 01/M04 A2940 RMK AO2 SLP966 T00061039
KPSF 041754Z AUTO 00000KT 10SM OVC039 01/M03 A2941 RMK AO2 SLP968 60000 T00111033 10011 21028 56022
KPSF 041654Z AUTO 00000KT 10SM OVC040 00/M03 A2943 RMK AO2 SLP976 T00001033
KPSF 041554Z AUTO 28003KT 10SM OVC035 M01/M04 A2946 RMK AO2 SLP986 T10061039
KPSF 041518Z AUTO 21004KT 10SM SCT024 OVC032 M01/M04 A2947 RMK AO2 T10111039
KPSF 041454Z AUTO 25005KT 10SM OVC022 M02/M04 A2948 RMK AO2 SLP994 60000 T10171044 51004
KPSF 041354Z AUTO 25005KT 10SM BKN023 OVC034 M02/M04 A2947 RMK AO2 SLP994 T10221044